sensor_id;sensor_type;location;lat;lon;timestamp;P1;durP1;ratioP1;P2;durP2;ratioP2
47762;SDS011;33526;42.690;23.322;2022-07-29T00:01:32;12.55;;;10.40;;
47762;SDS011;33526;42.690;23.322;2022-07-29T00:03:57;11.45;;;10.20;;
47762;SDS011;33526;42.690;23.322;2022-07-29T00:06:22;15.32;;;9.75;;
47762;SDS011;33526;42.690;23.322;2022-07-29T00:08:48;13.50;;;10.63;;
47762;SDS011;33526;42.690;23.322;2022-07-29T00:11:13;11.00;;;9.90;;
47762;SDS011;33526;42.690;23.322;2022-07-29T00:13:39;16.10;;;10.00;;
47762;SDS011;33526;42.690;23.322;2022-07-29T00:16:04;12.55;;;10.65;;
47762;SDS011;33526;42.690;23.322;2022-07-29T00:18:30;11.40;;;9.80;;
47762;SDS011;33526;42.690;23.322;2022-07-29T00:20:56;10.90;;;9.60;;
47762;SDS011;33526;42.690;23.322;2022-07-29T00:23:21;10.65;;;9.40;;
47762;SDS011;33526;42.690;23.322;2022-07-29T00:25:47;14.13;;;10.75;;
47762;SDS011;33526;42.690;23.322;2022-07-29T00:28:12;12.95;;;9.90;;
47762;SDS011;33526;42.690;23.322;2022-07-29T00:30:37;11.88;;;10.45;;
47762;SDS011;33526;42.690;23.322;2022-07-29T00:33:03;13.93;;;10.18;;
47762;SDS011;33526;42.690;23.322;2022-07-29T00:35:28;11.20;;;9.65;;
47762;SDS011;33526;42.690;23.322;2022-07-29T00:38:12;11.70;;;10.30;;
47762;SDS011;33526;42.690;23.322;2022-07-29T00:40:39;11.93;;;9.95;;
47762;SDS011;33526;42.690;23.322;2022-07-29T00:43:05;11.30;;;10.02;;
47762;SDS011;33526;42.690;23.322;2022-07-29T00:45:32;11.05;;;9.63;;
47762;SDS011;33526;42.690;23.322;2022-07-29T00:47:58;13.23;;;10.00;;
47762;SDS011;33526;42.690;23.322;2022-07-29T00:50:24;14.23;;;12.73;;
47762;SDS011;33526;42.690;23.322;2022-07-29T00:52:51;22.45;;;14.80;;
47762;SDS011;33526;42.690;23.322;2022-07-29T00:55:18;18.85;;;15.30;;
47762;SDS011;33526;42.690;23.322;2022-07-29T00:57:44;18.83;;;14.82;;
47762;SDS011;33526;42.690;23.322;2022-07-29T01:00:11;16.83;;;15.10;;
47762;SDS011;33526;42.690;23.322;2022-07-29T01:02:40;16.10;;;14.40;;
47762;SDS011;33526;42.690;23.322;2022-07-29T01:05:05;20.85;;;15.43;;
47762;SDS011;33526;42.690;23.322;2022-07-29T01:07:32;17.38;;;15.57;;
47762;SDS011;33526;42.690;23.322;2022-07-29T01:09:59;20.27;;;15.43;;
47762;SDS011;33526;42.690;23.322;2022-07-29T01:12:29;17.85;;;15.40;;
47762;SDS011;33526;42.690;23.322;2022-07-29T01:14:58;18.77;;;15.77;;
47762;SDS011;33526;42.690;23.322;2022-07-29T01:17:33;20.60;;;15.95;;
47762;SDS011;33526;42.690;23.322;2022-07-29T01:20:17;19.85;;;16.00;;
47762;SDS011;33526;42.690;23.322;2022-07-29T01:30:28;17.48;;;14.70;;
47762;SDS011;33526;42.690;23.322;2022-07-29T01:32:56;20.77;;;14.75;;
47762;SDS011;33526;42.690;23.322;2022-07-29T01:35:26;21.23;;;14.48;;
47762;SDS011;33526;42.690;23.322;2022-07-29T01:43:20;16.55;;;14.75;;
47762;SDS011;33526;42.690;23.322;2022-07-29T01:46:01;18.15;;;14.50;;
47762;SDS011;33526;42.690;23.322;2022-07-29T01:48:35;16.80;;;15.05;;
47762;SDS011;33526;42.690;23.322;2022-07-29T01:51:11;16.95;;;14.90;;
47762;SDS011;33526;42.690;23.322;2022-07-29T01:56:27;18.98;;;15.93;;
47762;SDS011;33526;42.690;23.322;2022-07-29T01:58:58;19.50;;;16.13;;
47762;SDS011;33526;42.690;23.322;2022-07-29T02:01:25;22.88;;;16.00;;
47762;SDS011;33526;42.690;23.322;2022-07-29T02:03:54;21.10;;;15.75;;
47762;SDS011;33526;42.690;23.322;2022-07-29T02:06:22;18.77;;;15.82;;
47762;SDS011;33526;42.690;23.322;2022-07-29T02:08:48;20.05;;;16.65;;
47762;SDS011;33526;42.690;23.322;2022-07-29T02:11:17;19.60;;;17.10;;
47762;SDS011;33526;42.690;23.322;2022-07-29T02:13:43;19.23;;;15.88;;
47762;SDS011;33526;42.690;23.322;2022-07-29T02:16:10;21.88;;;17.60;;
47762;SDS011;33526;42.690;23.322;2022-07-29T02:18:37;20.45;;;16.15;;
47762;SDS011;33526;42.690;23.322;2022-07-29T02:21:08;21.10;;;16.80;;
47762;SDS011;33526;42.690;23.322;2022-07-29T02:23:35;19.25;;;16.15;;
47762;SDS011;33526;42.690;23.322;2022-07-29T02:26:02;17.92;;;15.73;;
47762;SDS011;33526;42.690;23.322;2022-07-29T02:28:29;18.65;;;14.98;;
47762;SDS011;33526;42.690;23.322;2022-07-29T02:33:23;19.92;;;14.88;;
47762;SDS011;33526;42.690;23.322;2022-07-29T02:41:05;19.35;;;15.23;;
47762;SDS011;33526;42.690;23.322;2022-07-29T02:43:36;24.67;;;15.98;;
47762;SDS011;33526;42.690;23.322;2022-07-29T02:46:04;20.38;;;15.30;;
47762;SDS011;33526;42.690;23.322;2022-07-29T02:48:43;18.98;;;16.10;;
47762;SDS011;33526;42.690;23.322;2022-07-29T02:51:23;19.63;;;16.00;;
47762;SDS011;33526;42.690;23.322;2022-07-29T02:53:53;21.38;;;16.13;;
47762;SDS011;33526;42.690;23.322;2022-07-29T02:56:23;18.50;;;16.08;;
47762;SDS011;33526;42.690;23.322;2022-07-29T02:58:56;19.10;;;16.00;;
47762;SDS011;33526;42.690;23.322;2022-07-29T03:01:27;17.23;;;15.30;;
47762;SDS011;33526;42.690;23.322;2022-07-29T03:03:56;23.48;;;17.45;;
47762;SDS011;33526;42.690;23.322;2022-07-29T03:06:25;23.17;;;16.17;;
47762;SDS011;33526;42.690;23.322;2022-07-29T03:08:52;21.20;;;17.08;;
47762;SDS011;33526;42.690;23.322;2022-07-29T03:11:20;21.73;;;16.27;;
47762;SDS011;33526;42.690;23.322;2022-07-29T03:16:12;20.88;;;16.13;;
47762;SDS011;33526;42.690;23.322;2022-07-29T03:18:38;18.88;;;14.43;;
47762;SDS011;33526;42.690;23.322;2022-07-29T03:21:04;20.52;;;15.07;;
47762;SDS011;33526;42.690;23.322;2022-07-29T03:23:30;23.08;;;14.35;;
47762;SDS011;33526;42.690;23.322;2022-07-29T03:25:56;19.63;;;14.50;;
47762;SDS011;33526;42.690;23.322;2022-07-29T03:28:21;16.50;;;13.50;;
47762;SDS011;33526;42.690;23.322;2022-07-29T03:30:47;16.70;;;14.00;;
47762;SDS011;33526;42.690;23.322;2022-07-29T03:33:14;18.08;;;16.15;;
47762;SDS011;33526;42.690;23.322;2022-07-29T03:35:39;17.80;;;14.25;;
47762;SDS011;33526;42.690;23.322;2022-07-29T03:38:05;19.05;;;15.05;;
47762;SDS011;33526;42.690;23.322;2022-07-29T03:40:38;21.35;;;14.90;;
47762;SDS011;33526;42.690;23.322;2022-07-29T03:43:10;16.83;;;13.60;;
47762;SDS011;33526;42.690;23.322;2022-07-29T03:45:39;16.10;;;12.82;;
47762;SDS011;33526;42.690;23.322;2022-07-29T03:48:08;18.33;;;13.82;;
47762;SDS011;33526;42.690;23.322;2022-07-29T03:50:37;17.45;;;13.00;;
47762;SDS011;33526;42.690;23.322;2022-07-29T03:53:03;15.48;;;12.50;;
47762;SDS011;33526;42.690;23.322;2022-07-29T03:55:29;15.30;;;11.75;;
47762;SDS011;33526;42.690;23.322;2022-07-29T03:58:01;16.83;;;12.00;;
47762;SDS011;33526;42.690;23.322;2022-07-29T04:00:27;13.10;;;10.70;;
47762;SDS011;33526;42.690;23.322;2022-07-29T04:02:53;14.30;;;11.35;;
47762;SDS011;33526;42.690;23.322;2022-07-29T04:05:19;14.70;;;11.15;;
47762;SDS011;33526;42.690;23.322;2022-07-29T04:07:45;15.85;;;11.68;;
47762;SDS011;33526;42.690;23.322;2022-07-29T04:10:11;16.50;;;10.82;;
47762;SDS011;33526;42.690;23.322;2022-07-29T04:12:37;13.65;;;11.18;;
47762;SDS011;33526;42.690;23.322;2022-07-29T04:15:03;15.60;;;11.65;;
47762;SDS011;33526;42.690;23.322;2022-07-29T04:17:29;14.10;;;10.63;;
47762;SDS011;33526;42.690;23.322;2022-07-29T04:19:57;11.02;;;9.88;;
47762;SDS011;33526;42.690;23.322;2022-07-29T04:22:25;13.45;;;10.32;;
47762;SDS011;33526;42.690;23.322;2022-07-29T04:24:50;11.75;;;10.50;;
47762;SDS011;33526;42.690;23.322;2022-07-29T04:27:16;14.75;;;10.13;;
47762;SDS011;33526;42.690;23.322;2022-07-29T04:29:41;11.82;;;9.48;;
47762;SDS011;33526;42.690;23.322;2022-07-29T04:32:06;11.02;;;9.02;;
47762;SDS011;33526;42.690;23.322;2022-07-29T04:34:32;12.10;;;9.48;;
47762;SDS011;33526;42.690;23.322;2022-07-29T04:36:57;17.00;;;10.30;;
47762;SDS011;33526;42.690;23.322;2022-07-29T04:39:23;16.30;;;10.07;;
47762;SDS011;33526;42.690;23.322;2022-07-29T04:41:49;15.63;;;9.73;;
47762;SDS011;33526;42.690;23.322;2022-07-29T04:44:15;9.73;;;8.63;;
47762;SDS011;33526;42.690;23.322;2022-07-29T04:46:41;13.05;;;9.45;;
47762;SDS011;33526;42.690;23.322;2022-07-29T04:49:06;17.40;;;10.32;;
47762;SDS011;33526;42.690;23.322;2022-07-29T04:51:31;14.90;;;8.55;;
47762;SDS011;33526;42.690;23.322;2022-07-29T04:53:57;11.38;;;9.45;;
47762;SDS011;33526;42.690;23.322;2022-07-29T04:56:23;14.43;;;9.40;;
47762;SDS011;33526;42.690;23.322;2022-07-29T04:58:48;55.15;;;17.67;;
47762;SDS011;33526;42.690;23.322;2022-07-29T05:01:14;15.23;;;8.90;;
47762;SDS011;33526;42.690;23.322;2022-07-29T05:03:42;15.82;;;8.73;;
47762;SDS011;33526;42.690;23.322;2022-07-29T05:06:08;27.60;;;11.88;;
47762;SDS011;33526;42.690;23.322;2022-07-29T05:08:33;17.17;;;9.03;;
47762;SDS011;33526;42.690;23.322;2022-07-29T05:10:59;17.57;;;8.77;;
47762;SDS011;33526;42.690;23.322;2022-07-29T05:13:24;11.10;;;7.22;;
47762;SDS011;33526;42.690;23.322;2022-07-29T05:15:49;13.20;;;7.90;;
47762;SDS011;33526;42.690;23.322;2022-07-29T05:18:15;10.23;;;7.20;;
47762;SDS011;33526;42.690;23.322;2022-07-29T05:20:40;7.90;;;7.10;;
47762;SDS011;33526;42.690;23.322;2022-07-29T05:23:06;13.48;;;8.98;;
47762;SDS011;33526;42.690;23.322;2022-07-29T05:25:32;19.40;;;8.93;;
47762;SDS011;33526;42.690;23.322;2022-07-29T05:27:58;22.43;;;9.20;;
47762;SDS011;33526;42.690;23.322;2022-07-29T05:30:23;8.98;;;7.60;;
47762;SDS011;33526;42.690;23.322;2022-07-29T05:32:49;11.85;;;9.00;;
47762;SDS011;33526;42.690;23.322;2022-07-29T05:35:15;17.50;;;8.60;;
47762;SDS011;33526;42.690;23.322;2022-07-29T05:37:41;16.43;;;8.60;;
47762;SDS011;33526;42.690;23.322;2022-07-29T05:40:07;10.87;;;7.93;;
47762;SDS011;33526;42.690;23.322;2022-07-29T05:42:33;13.48;;;8.07;;
47762;SDS011;33526;42.690;23.322;2022-07-29T05:44:59;12.27;;;8.20;;
47762;SDS011;33526;42.690;23.322;2022-07-29T05:47:25;8.60;;;7.23;;
47762;SDS011;33526;42.690;23.322;2022-07-29T05:49:50;12.47;;;8.37;;
47762;SDS011;33526;42.690;23.322;2022-07-29T05:52:19;12.60;;;7.43;;
47762;SDS011;33526;42.690;23.322;2022-07-29T05:54:45;9.65;;;7.28;;
47762;SDS011;33526;42.690;23.322;2022-07-29T05:57:17;7.63;;;5.60;;
47762;SDS011;33526;42.690;23.322;2022-07-29T05:59:43;7.47;;;5.10;;
47762;SDS011;33526;42.690;23.322;2022-07-29T06:02:09;9.57;;;5.73;;
47762;SDS011;33526;42.690;23.322;2022-07-29T06:04:34;8.43;;;5.53;;
47762;SDS011;33526;42.690;23.322;2022-07-29T06:07:00;6.73;;;4.80;;
47762;SDS011;33526;42.690;23.322;2022-07-29T06:09:26;6.82;;;5.45;;
47762;SDS011;33526;42.690;23.322;2022-07-29T06:11:52;8.43;;;5.17;;
47762;SDS011;33526;42.690;23.322;2022-07-29T06:14:17;10.63;;;5.37;;
47762;SDS011;33526;42.690;23.322;2022-07-29T06:16:43;10.63;;;5.87;;
47762;SDS011;33526;42.690;23.322;2022-07-29T06:19:09;6.77;;;4.73;;
47762;SDS011;33526;42.690;23.322;2022-07-29T06:21:34;7.57;;;5.37;;
47762;SDS011;33526;42.690;23.322;2022-07-29T06:24:00;7.87;;;4.87;;
47762;SDS011;33526;42.690;23.322;2022-07-29T06:26:25;7.60;;;5.80;;
47762;SDS011;33526;42.690;23.322;2022-07-29T06:28:51;6.53;;;5.30;;
47762;SDS011;33526;42.690;23.322;2022-07-29T06:31:16;12.00;;;5.50;;
47762;SDS011;33526;42.690;23.322;2022-07-29T06:33:42;6.47;;;5.40;;
47762;SDS011;33526;42.690;23.322;2022-07-29T06:36:07;11.23;;;5.90;;
47762;SDS011;33526;42.690;23.322;2022-07-29T06:38:33;8.93;;;5.67;;
47762;SDS011;33526;42.690;23.322;2022-07-29T06:40:59;5.68;;;5.10;;
47762;SDS011;33526;42.690;23.322;2022-07-29T06:43:26;7.03;;;5.50;;
47762;SDS011;33526;42.690;23.322;2022-07-29T06:46:06;10.40;;;5.72;;
47762;SDS011;33526;42.690;23.322;2022-07-29T06:48:34;7.45;;;6.00;;
47762;SDS011;33526;42.690;23.322;2022-07-29T06:51:01;16.95;;;7.15;;
47762;SDS011;33526;42.690;23.322;2022-07-29T06:53:28;8.85;;;5.07;;
47762;SDS011;33526;42.690;23.322;2022-07-29T06:55:53;12.13;;;5.95;;
47762;SDS011;33526;42.690;23.322;2022-07-29T06:58:19;8.88;;;5.57;;
47762;SDS011;33526;42.690;23.322;2022-07-29T07:00:46;9.13;;;6.13;;
47762;SDS011;33526;42.690;23.322;2022-07-29T07:03:13;9.43;;;5.43;;
47762;SDS011;33526;42.690;23.322;2022-07-29T07:05:39;9.57;;;5.20;;
47762;SDS011;33526;42.690;23.322;2022-07-29T07:08:05;8.25;;;5.40;;
47762;SDS011;33526;42.690;23.322;2022-07-29T07:10:30;8.20;;;5.30;;
47762;SDS011;33526;42.690;23.322;2022-07-29T07:12:57;7.38;;;5.53;;
47762;SDS011;33526;42.690;23.322;2022-07-29T07:15:22;7.57;;;5.07;;
47762;SDS011;33526;42.690;23.322;2022-07-29T07:17:48;5.82;;;4.65;;
47762;SDS011;33526;42.690;23.322;2022-07-29T07:20:14;9.57;;;5.43;;
47762;SDS011;33526;42.690;23.322;2022-07-29T07:22:41;6.00;;;4.78;;
47762;SDS011;33526;42.690;23.322;2022-07-29T07:25:06;6.22;;;5.43;;
47762;SDS011;33526;42.690;23.322;2022-07-29T07:27:32;10.20;;;5.00;;
47762;SDS011;33526;42.690;23.322;2022-07-29T07:29:57;8.35;;;5.50;;
47762;SDS011;33526;42.690;23.322;2022-07-29T07:32:23;5.57;;;4.80;;
47762;SDS011;33526;42.690;23.322;2022-07-29T07:34:48;5.55;;;4.75;;
47762;SDS011;33526;42.690;23.322;2022-07-29T07:37:14;7.15;;;4.80;;
47762;SDS011;33526;42.690;23.322;2022-07-29T07:39:40;7.47;;;4.72;;
47762;SDS011;33526;42.690;23.322;2022-07-29T07:42:06;6.90;;;4.28;;
47762;SDS011;33526;42.690;23.322;2022-07-29T07:44:33;5.20;;;4.50;;
47762;SDS011;33526;42.690;23.322;2022-07-29T07:46:58;4.18;;;3.67;;
47762;SDS011;33526;42.690;23.322;2022-07-29T07:49:24;9.82;;;4.90;;
47762;SDS011;33526;42.690;23.322;2022-07-29T07:51:49;4.95;;;4.18;;
47762;SDS011;33526;42.690;23.322;2022-07-29T07:54:15;6.80;;;4.25;;
47762;SDS011;33526;42.690;23.322;2022-07-29T07:56:40;11.57;;;4.40;;
47762;SDS011;33526;42.690;23.322;2022-07-29T07:59:06;10.20;;;4.10;;
47762;SDS011;33526;42.690;23.322;2022-07-29T08:01:31;5.37;;;4.03;;
47762;SDS011;33526;42.690;23.322;2022-07-29T08:03:57;5.20;;;4.13;;
47762;SDS011;33526;42.690;23.322;2022-07-29T08:06:23;4.82;;;4.05;;
47762;SDS011;33526;42.690;23.322;2022-07-29T08:08:50;3.75;;;3.42;;
47762;SDS011;33526;42.690;23.322;2022-07-29T08:11:15;4.78;;;4.10;;
47762;SDS011;33526;42.690;23.322;2022-07-29T08:13:42;6.03;;;4.60;;
47762;SDS011;33526;42.690;23.322;2022-07-29T08:16:08;4.47;;;4.07;;
47762;SDS011;33526;42.690;23.322;2022-07-29T08:18:37;8.30;;;3.83;;
47762;SDS011;33526;42.690;23.322;2022-07-29T08:21:05;4.07;;;3.55;;
47762;SDS011;33526;42.690;23.322;2022-07-29T08:23:31;5.25;;;3.42;;
47762;SDS011;33526;42.690;23.322;2022-07-29T08:26:03;5.20;;;4.28;;
47762;SDS011;33526;42.690;23.322;2022-07-29T08:28:30;5.43;;;3.80;;
47762;SDS011;33526;42.690;23.322;2022-07-29T08:30:55;6.60;;;3.67;;
47762;SDS011;33526;42.690;23.322;2022-07-29T08:33:21;6.65;;;3.40;;
47762;SDS011;33526;42.690;23.322;2022-07-29T08:35:46;5.10;;;3.50;;
47762;SDS011;33526;42.690;23.322;2022-07-29T08:38:12;5.63;;;3.70;;
47762;SDS011;33526;42.690;23.322;2022-07-29T08:40:38;4.43;;;3.30;;
47762;SDS011;33526;42.690;23.322;2022-07-29T08:43:04;5.60;;;3.25;;
47762;SDS011;33526;42.690;23.322;2022-07-29T08:45:35;4.00;;;3.10;;
47762;SDS011;33526;42.690;23.322;2022-07-29T08:48:11;8.18;;;3.10;;
47762;SDS011;33526;42.690;23.322;2022-07-29T08:50:44;5.72;;;4.03;;
47762;SDS011;33526;42.690;23.322;2022-07-29T08:53:11;7.03;;;4.20;;
47762;SDS011;33526;42.690;23.322;2022-07-29T08:55:39;4.90;;;3.60;;
47762;SDS011;33526;42.690;23.322;2022-07-29T08:58:08;5.40;;;4.20;;
47762;SDS011;33526;42.690;23.322;2022-07-29T09:00:41;7.00;;;3.35;;
47762;SDS011;33526;42.690;23.322;2022-07-29T09:03:24;4.65;;;3.40;;
47762;SDS011;33526;42.690;23.322;2022-07-29T09:05:54;4.38;;;3.80;;
47762;SDS011;33526;42.690;23.322;2022-07-29T09:08:20;6.83;;;3.27;;
47762;SDS011;33526;42.690;23.322;2022-07-29T09:10:46;3.35;;;3.05;;
47762;SDS011;33526;42.690;23.322;2022-07-29T09:13:12;5.33;;;3.17;;
47762;SDS011;33526;42.690;23.322;2022-07-29T09:15:38;8.80;;;3.90;;
47762;SDS011;33526;42.690;23.322;2022-07-29T09:18:03;9.13;;;3.90;;
47762;SDS011;33526;42.690;23.322;2022-07-29T09:20:29;5.27;;;4.10;;
47762;SDS011;33526;42.690;23.322;2022-07-29T09:23:14;3.75;;;3.28;;
47762;SDS011;33526;42.690;23.322;2022-07-29T09:25:40;6.13;;;3.87;;
47762;SDS011;33526;42.690;23.322;2022-07-29T09:28:07;6.28;;;3.90;;
47762;SDS011;33526;42.690;23.322;2022-07-29T09:30:34;4.40;;;3.10;;
47762;SDS011;33526;42.690;23.322;2022-07-29T09:33:00;5.93;;;3.27;;
47762;SDS011;33526;42.690;23.322;2022-07-29T09:35:28;5.68;;;3.80;;
47762;SDS011;33526;42.690;23.322;2022-07-29T09:37:54;8.60;;;3.90;;
47762;SDS011;33526;42.690;23.322;2022-07-29T09:40:21;12.57;;;3.67;;
47762;SDS011;33526;42.690;23.322;2022-07-29T09:42:49;5.22;;;3.55;;
47762;SDS011;33526;42.690;23.322;2022-07-29T09:45:26;6.43;;;3.63;;
47762;SDS011;33526;42.690;23.322;2022-07-29T09:47:55;6.35;;;3.40;;
47762;SDS011;33526;42.690;23.322;2022-07-29T09:50:34;4.35;;;3.70;;
47762;SDS011;33526;42.690;23.322;2022-07-29T09:53:02;8.13;;;4.07;;
47762;SDS011;33526;42.690;23.322;2022-07-29T09:55:28;8.87;;;4.10;;
47762;SDS011;33526;42.690;23.322;2022-07-29T09:57:53;7.13;;;3.90;;
47762;SDS011;33526;42.690;23.322;2022-07-29T10:00:41;5.88;;;3.42;;
47762;SDS011;33526;42.690;23.322;2022-07-29T10:03:07;6.90;;;3.47;;
47762;SDS011;33526;42.690;23.322;2022-07-29T10:05:32;5.30;;;3.10;;
47762;SDS011;33526;42.690;23.322;2022-07-29T10:07:58;9.83;;;3.23;;
47762;SDS011;33526;42.690;23.322;2022-07-29T10:10:27;5.90;;;4.30;;
47762;SDS011;33526;42.690;23.322;2022-07-29T10:13:06;5.95;;;3.50;;
47762;SDS011;33526;42.690;23.322;2022-07-29T10:15:37;10.07;;;6.75;;
47762;SDS011;33526;42.690;23.322;2022-07-29T10:18:06;8.00;;;5.47;;
47762;SDS011;33526;42.690;23.322;2022-07-29T10:20:33;4.50;;;4.10;;
47762;SDS011;33526;42.690;23.322;2022-07-29T10:22:59;6.03;;;3.90;;
47762;SDS011;33526;42.690;23.322;2022-07-29T10:25:25;8.87;;;3.10;;
47762;SDS011;33526;42.690;23.322;2022-07-29T10:27:51;3.55;;;3.08;;
47762;SDS011;33526;42.690;23.322;2022-07-29T10:30:18;5.03;;;3.40;;
47762;SDS011;33526;42.690;23.322;2022-07-29T10:35:39;4.20;;;3.20;;
47762;SDS011;33526;42.690;23.322;2022-07-29T10:44:03;3.80;;;2.83;;
47762;SDS011;33526;42.690;23.322;2022-07-29T10:46:35;4.47;;;3.10;;
47762;SDS011;33526;42.690;23.322;2022-07-29T10:59:47;4.73;;;3.17;;
47762;SDS011;33526;42.690;23.322;2022-07-29T11:05:07;4.10;;;3.20;;
47762;SDS011;33526;42.690;23.322;2022-07-29T11:07:34;8.85;;;2.88;;
47762;SDS011;33526;42.690;23.322;2022-07-29T11:15:02;4.07;;;3.50;;
47762;SDS011;33526;42.690;23.322;2022-07-29T11:18:15;6.13;;;3.15;;
47762;SDS011;33526;42.690;23.322;2022-07-29T11:23:19;5.68;;;3.40;;
47762;SDS011;33526;42.690;23.322;2022-07-29T11:28:50;8.23;;;3.65;;
47762;SDS011;33526;42.690;23.322;2022-07-29T11:45:00;4.88;;;4.18;;
47762;SDS011;33526;42.690;23.322;2022-07-29T11:47:39;4.28;;;3.97;;
47762;SDS011;33526;42.690;23.322;2022-07-29T11:50:11;4.78;;;3.80;;
47762;SDS011;33526;42.690;23.322;2022-07-29T11:52:38;8.68;;;3.67;;
47762;SDS011;33526;42.690;23.322;2022-07-29T11:55:11;8.82;;;4.22;;
47762;SDS011;33526;42.690;23.322;2022-07-29T11:57:46;7.30;;;3.67;;
47762;SDS011;33526;42.690;23.322;2022-07-29T12:00:28;5.95;;;3.80;;
47762;SDS011;33526;42.690;23.322;2022-07-29T12:02:56;5.32;;;4.30;;
47762;SDS011;33526;42.690;23.322;2022-07-29T12:05:36;4.47;;;4.07;;
47762;SDS011;33526;42.690;23.322;2022-07-29T12:10:39;10.90;;;4.57;;
47762;SDS011;33526;42.690;23.322;2022-07-29T12:13:05;5.38;;;4.65;;
47762;SDS011;33526;42.690;23.322;2022-07-29T12:15:31;4.37;;;3.93;;
47762;SDS011;33526;42.690;23.322;2022-07-29T12:17:57;8.57;;;4.80;;
47762;SDS011;33526;42.690;23.322;2022-07-29T12:20:27;5.80;;;3.78;;
47762;SDS011;33526;42.690;23.322;2022-07-29T12:22:56;5.18;;;3.90;;
47762;SDS011;33526;42.690;23.322;2022-07-29T12:25:22;4.15;;;3.78;;
47762;SDS011;33526;42.690;23.322;2022-07-29T12:27:58;5.05;;;4.35;;
47762;SDS011;33526;42.690;23.322;2022-07-29T12:30:33;10.00;;;5.75;;
47762;SDS011;33526;42.690;23.322;2022-07-29T12:33:00;6.28;;;4.93;;
47762;SDS011;33526;42.690;23.322;2022-07-29T12:35:26;6.83;;;6.13;;
47762;SDS011;33526;42.690;23.322;2022-07-29T12:37:52;5.67;;;4.33;;
47762;SDS011;33526;42.690;23.322;2022-07-29T12:40:17;6.80;;;5.67;;
47762;SDS011;33526;42.690;23.322;2022-07-29T12:45:32;6.65;;;4.43;;
47762;SDS011;33526;42.690;23.322;2022-07-29T12:47:58;4.82;;;4.15;;
47762;SDS011;33526;42.690;23.322;2022-07-29T12:50:24;9.60;;;4.97;;
47762;SDS011;33526;42.690;23.322;2022-07-29T12:52:50;6.00;;;5.40;;
47762;SDS011;33526;42.690;23.322;2022-07-29T12:55:16;7.88;;;4.63;;
47762;SDS011;33526;42.690;23.322;2022-07-29T12:58:28;6.25;;;5.10;;
47762;SDS011;33526;42.690;23.322;2022-07-29T13:00:59;9.38;;;5.53;;
47762;SDS011;33526;42.690;23.322;2022-07-29T13:03:24;7.50;;;6.03;;
47762;SDS011;33526;42.690;23.322;2022-07-29T13:05:50;12.13;;;6.00;;
47762;SDS011;33526;42.690;23.322;2022-07-29T13:08:16;6.23;;;4.97;;
47762;SDS011;33526;42.690;23.322;2022-07-29T13:10:45;7.95;;;5.78;;
47762;SDS011;33526;42.690;23.322;2022-07-29T13:15:40;9.93;;;6.00;;
47762;SDS011;33526;42.690;23.322;2022-07-29T13:20:56;7.25;;;5.05;;
47762;SDS011;33526;42.690;23.322;2022-07-29T13:23:22;6.70;;;4.78;;
47762;SDS011;33526;42.690;23.322;2022-07-29T13:25:47;9.77;;;4.77;;
47762;SDS011;33526;42.690;23.322;2022-07-29T13:28:15;7.65;;;4.78;;
47762;SDS011;33526;42.690;23.322;2022-07-29T13:30:41;11.85;;;5.30;;
47762;SDS011;33526;42.690;23.322;2022-07-29T13:33:07;5.72;;;4.78;;
47762;SDS011;33526;42.690;23.322;2022-07-29T13:35:32;6.80;;;5.37;;
47762;SDS011;33526;42.690;23.322;2022-07-29T13:37:58;5.33;;;4.90;;
47762;SDS011;33526;42.690;23.322;2022-07-29T13:40:24;7.40;;;5.27;;
47762;SDS011;33526;42.690;23.322;2022-07-29T13:42:51;4.95;;;4.55;;
47762;SDS011;33526;42.690;23.322;2022-07-29T13:45:19;5.90;;;5.30;;
47762;SDS011;33526;42.690;23.322;2022-07-29T13:47:44;5.77;;;4.97;;
47762;SDS011;33526;42.690;23.322;2022-07-29T13:50:10;6.10;;;5.50;;
47762;SDS011;33526;42.690;23.322;2022-07-29T13:55:03;7.68;;;6.88;;
47762;SDS011;33526;42.690;23.322;2022-07-29T13:57:29;6.05;;;5.00;;
47762;SDS011;33526;42.690;23.322;2022-07-29T13:59:56;6.35;;;5.43;;
47762;SDS011;33526;42.690;23.322;2022-07-29T14:02:22;8.27;;;6.03;;
47762;SDS011;33526;42.690;23.322;2022-07-29T14:04:48;8.10;;;6.37;;
47762;SDS011;33526;42.690;23.322;2022-07-29T14:07:13;8.07;;;6.73;;
47762;SDS011;33526;42.690;23.322;2022-07-29T14:09:39;9.63;;;5.90;;
47762;SDS011;33526;42.690;23.322;2022-07-29T14:12:05;7.60;;;5.10;;
47762;SDS011;33526;42.690;23.322;2022-07-29T14:14:31;7.53;;;4.95;;
47762;SDS011;33526;42.690;23.322;2022-07-29T14:16:58;4.93;;;4.43;;
47762;SDS011;33526;42.690;23.322;2022-07-29T14:19:24;6.72;;;5.63;;
47762;SDS011;33526;42.690;23.322;2022-07-29T14:21:50;7.17;;;6.47;;
47762;SDS011;33526;42.690;23.322;2022-07-29T14:24:15;8.13;;;6.67;;
47762;SDS011;33526;42.690;23.322;2022-07-29T14:26:42;5.23;;;4.73;;
47762;SDS011;33526;42.690;23.322;2022-07-29T14:29:07;9.55;;;5.45;;
47762;SDS011;33526;42.690;23.322;2022-07-29T14:31:33;5.70;;;5.20;;
47762;SDS011;33526;42.690;23.322;2022-07-29T14:34:00;6.93;;;5.43;;
47762;SDS011;33526;42.690;23.322;2022-07-29T14:36:26;11.30;;;10.00;;
47762;SDS011;33526;42.690;23.322;2022-07-29T14:38:52;9.73;;;6.85;;
47762;SDS011;33526;42.690;23.322;2022-07-29T14:41:18;5.60;;;5.10;;
47762;SDS011;33526;42.690;23.322;2022-07-29T14:43:43;9.87;;;5.57;;
47762;SDS011;33526;42.690;23.322;2022-07-29T14:46:09;4.87;;;4.37;;
47762;SDS011;33526;42.690;23.322;2022-07-29T14:48:34;5.33;;;4.70;;
47762;SDS011;33526;42.690;23.322;2022-07-29T14:51:00;9.10;;;4.90;;
47762;SDS011;33526;42.690;23.322;2022-07-29T14:53:25;5.83;;;5.20;;
47762;SDS011;33526;42.690;23.322;2022-07-29T14:55:51;8.40;;;5.30;;
47762;SDS011;33526;42.690;23.322;2022-07-29T14:58:16;7.43;;;5.57;;
47762;SDS011;33526;42.690;23.322;2022-07-29T15:00:42;5.00;;;4.40;;
47762;SDS011;33526;42.690;23.322;2022-07-29T15:03:08;7.60;;;5.20;;
47762;SDS011;33526;42.690;23.322;2022-07-29T15:05:36;9.73;;;5.32;;
47762;SDS011;33526;42.690;23.322;2022-07-29T15:08:02;9.03;;;5.23;;
47762;SDS011;33526;42.690;23.322;2022-07-29T15:10:27;9.90;;;5.60;;
47762;SDS011;33526;42.690;23.322;2022-07-29T15:12:54;6.83;;;5.40;;
47762;SDS011;33526;42.690;23.322;2022-07-29T15:15:19;6.60;;;5.38;;
47762;SDS011;33526;42.690;23.322;2022-07-29T15:17:45;5.60;;;5.03;;
47762;SDS011;33526;42.690;23.322;2022-07-29T15:20:11;10.17;;;8.63;;
47762;SDS011;33526;42.690;23.322;2022-07-29T15:22:36;6.73;;;5.83;;
47762;SDS011;33526;42.690;23.322;2022-07-29T15:25:03;6.97;;;5.30;;
47762;SDS011;33526;42.690;23.322;2022-07-29T15:27:29;5.72;;;4.50;;
47762;SDS011;33526;42.690;23.322;2022-07-29T15:29:55;5.63;;;5.07;;
47762;SDS011;33526;42.690;23.322;2022-07-29T15:32:21;6.22;;;5.68;;
47762;SDS011;33526;42.690;23.322;2022-07-29T15:34:47;8.47;;;5.77;;
47762;SDS011;33526;42.690;23.322;2022-07-29T15:37:12;7.43;;;5.20;;
47762;SDS011;33526;42.690;23.322;2022-07-29T15:39:38;6.50;;;5.50;;
47762;SDS011;33526;42.690;23.322;2022-07-29T15:42:03;6.37;;;5.47;;
47762;SDS011;33526;42.690;23.322;2022-07-29T15:44:29;4.90;;;4.40;;
47762;SDS011;33526;42.690;23.322;2022-07-29T15:46:55;7.03;;;4.93;;
47762;SDS011;33526;42.690;23.322;2022-07-29T15:49:34;7.22;;;4.95;;
47762;SDS011;33526;42.690;23.322;2022-07-29T15:52:06;10.48;;;5.63;;
47762;SDS011;33526;42.690;23.322;2022-07-29T15:54:34;7.10;;;6.15;;